Time;durP1;ratioP1;P1;durP2;ratioP2;P2;SDS_P1;SDS_P2;PMS_P1;PMS_P2;Temp;Humidity;BMP_temperature;BMP_pressure;BME280_temperature;BME280_humidity;BME280_pressure;Samples;Min_cycle;Max_cycle;Signal;HPM_P1;HPM_P2
2023/09/28 00:00:45;;;;;;;7.33;6.47;;;17.50;99.90;;;;;;943744;149;27337;-77
2023/09/28 00:02:28;;;;;;;6.90;6.20;;;17.50;99.90;;;;;;926174;149;27389;-76
2023/09/28 00:04:56;;;;;;;8.33;5.78;;;17.50;99.90;;;;;;943463;149;27334;-76
2023/09/28 00:07:22;;;;;;;6.80;6.20;;;17.50;99.90;;;;;;946588;149;27428;-76
2023/09/28 00:09:48;;;;;;;6.60;5.90;;;17.40;99.90;;;;;;944432;149;27611;-76
2023/09/28 00:12:15;;;;;;;7.03;6.35;;;17.40;99.90;;;;;;944723;149;27327;-76
2023/09/28 00:14:41;;;;;;;6.58;6.08;;;17.50;99.90;;;;;;946657;148;27326;-76
2023/09/28 00:17:09;;;;;;;6.78;6.17;;;17.40;99.90;;;;;;944253;149;27736;-76
2023/09/28 00:19:34;;;;;;;6.90;6.20;;;17.40;99.90;;;;;;943464;149;27428;-76
2023/09/28 00:22:01;;;;;;;6.78;6.17;;;17.40;99.90;;;;;;943954;149;27345;-76
2023/09/28 00:24:28;;;;;;;7.78;6.12;;;17.40;99.90;;;;;;944401;149;27439;-77
2023/09/28 00:26:54;;;;;;;7.37;6.45;;;17.40;99.90;;;;;;943336;149;27397;-73
2023/09/28 00:29:21;;;;;;;7.33;6.45;;;17.30;99.90;;;;;;943790;149;27461;-74
2023/09/28 00:31:48;;;;;;;6.95;6.33;;;17.30;99.90;;;;;;943964;149;27389;-73
2023/09/28 00:34:14;;;;;;;6.92;6.20;;;17.30;99.90;;;;;;944374;149;27299;-73
2023/09/28 00:36:41;;;;;;;7.85;6.47;;;17.30;99.90;;;;;;945328;149;27347;-73
2023/09/28 00:39:08;;;;;;;6.78;6.17;;;17.30;99.90;;;;;;944821;149;27340;-73
2023/09/28 00:41:34;;;;;;;6.78;6.10;;;17.20;99.90;;;;;;944026;149;27334;-73
2023/09/28 00:44:01;;;;;;;7.05;6.37;;;17.20;99.90;;;;;;942953;149;27332;-74
2023/09/28 00:46:27;;;;;;;7.12;6.58;;;17.20;99.90;;;;;;943540;149;27382;-73
2023/09/28 00:48:54;;;;;;;7.37;6.70;;;17.20;99.90;;;;;;942605;149;27412;-73
2023/09/28 00:51:20;;;;;;;8.03;6.60;;;17.20;99.90;;;;;;944083;149;27392;-75
2023/09/28 00:53:47;;;;;;;7.80;6.58;;;17.20;99.90;;;;;;944715;149;27424;-73
2023/09/28 00:56:13;;;;;;;6.67;6.00;;;17.20;99.90;;;;;;944716;149;27832;-74
2023/09/28 00:58:40;;;;;;;8.00;6.47;;;17.10;99.90;;;;;;942830;149;27821;-75
2023/09/28 01:01:10;;;;;;;7.03;6.42;;;17.10;99.90;;;;;;944300;149;27278;-73
2023/09/28 01:03:34;;;;;;;6.78;6.17;;;17.10;99.90;;;;;;943993;148;27316;-76
2023/09/28 01:06:00;;;;;;;7.10;6.50;;;17.10;99.90;;;;;;943329;148;27334;-73
2023/09/28 01:08:26;;;;;;;7.35;6.75;;;17.10;99.90;;;;;;943579;149;27351;-76
2023/09/28 01:10:53;;;;;;;8.35;6.95;;;17.10;99.90;;;;;;924798;151;27341;-75
2023/09/28 01:13:23;;;;;;;7.78;7.08;;;17.10;99.90;;;;;;953780;148;27448;-74
2023/09/28 01:15:46;;;;;;;7.55;6.65;;;17.00;99.90;;;;;;952916;148;27474;-72
2023/09/28 01:18:15;;;;;;;7.25;6.58;;;17.10;99.90;;;;;;940797;150;27357;-74
2023/09/28 01:20:40;;;;;;;6.62;6.12;;;17.00;99.90;;;;;;943210;146;27385;-75
2023/09/28 01:23:06;;;;;;;6.87;6.33;;;17.00;99.90;;;;;;953210;148;27368;-73
2023/09/28 01:25:32;;;;;;;7.45;6.85;;;17.00;99.90;;;;;;951577;148;27804;-75
2023/09/28 01:27:59;;;;;;;8.00;7.20;;;17.00;99.90;;;;;;952500;148;27399;-73
2023/09/28 01:30:26;;;;;;;8.35;7.15;;;17.00;99.90;;;;;;936279;151;27699;-75
2023/09/28 01:32:52;;;;;;;9.28;7.00;;;17.00;99.90;;;;;;942381;148;27435;-73
2023/09/28 01:35:19;;;;;;;7.00;6.40;;;17.00;99.90;;;;;;953417;148;27337;-75
2023/09/28 01:37:51;;;;;;;6.47;5.87;;;17.00;99.90;;;;;;951810;148;27427;-76
2023/09/28 01:40:18;;;;;;;11.55;6.53;;;17.00;99.90;;;;;;936199;151;27965;-76
2023/09/28 01:42:44;;;;;;;7.72;6.70;;;17.00;99.90;;;;;;953107;148;27472;-75
2023/09/28 01:45:11;;;;;;;6.35;5.85;;;17.00;99.90;;;;;;926177;151;27744;-75
2023/09/28 01:47:38;;;;;;;6.90;6.30;;;17.00;99.90;;;;;;933283;151;27349;-76
2023/09/28 01:50:04;;;;;;;6.67;6.03;;;17.00;99.90;;;;;;956320;148;27445;-75
2023/09/28 01:52:31;;;;;;;6.15;5.65;;;17.00;99.90;;;;;;953941;148;27436;-75
2023/09/28 01:54:57;;;;;;;7.37;6.67;;;17.00;99.90;;;;;;953047;148;27794;-75
2023/09/28 01:57:24;;;;;;;7.53;6.55;;;17.00;99.90;;;;;;937248;151;27328;-75
2023/09/28 01:59:51;;;;;;;13.00;7.35;;;17.00;99.90;;;;;;945583;148;27458;-75
2023/09/28 02:02:17;;;;;;;7.30;6.60;;;17.00;99.90;;;;;;953225;148;27354;-75
2023/09/28 02:04:44;;;;;;;7.10;6.40;;;17.00;99.90;;;;;;936309;151;27311;-75
2023/09/28 02:07:10;;;;;;;6.58;5.97;;;17.00;99.90;;;;;;933839;151;27361;-75
2023/09/28 02:09:37;;;;;;;7.60;6.85;;;17.00;99.90;;;;;;933533;151;27372;-75
2023/09/28 02:12:04;;;;;;;7.25;6.65;;;17.00;99.90;;;;;;935960;150;27427;-75
2023/09/28 02:14:31;;;;;;;5.97;5.47;;;17.00;99.90;;;;;;936286;151;27327;-75
2023/09/28 02:16:57;;;;;;;6.78;6.17;;;17.00;99.90;;;;;;935173;151;27439;-75
2023/09/28 02:19:23;;;;;;;6.90;6.20;;;17.00;99.90;;;;;;942514;148;27362;-75
2023/09/28 02:21:51;;;;;;;7.53;6.85;;;17.00;99.90;;;;;;940483;148;27371;-75
2023/09/28 02:24:16;;;;;;;6.50;5.90;;;17.00;99.90;;;;;;951860;148;27354;-75
2023/09/28 02:26:44;;;;;;;8.58;6.00;;;17.00;99.90;;;;;;947891;149;27334;-75
2023/09/28 02:29:10;;;;;;;6.87;6.28;;;17.00;99.90;;;;;;948523;149;27469;-75
2023/09/28 02:31:36;;;;;;;7.03;6.42;;;16.90;99.90;;;;;;952358;148;27331;-75
2023/09/28 02:34:03;;;;;;;7.47;6.78;;;16.90;99.90;;;;;;950951;148;27472;-75
2023/09/28 02:36:32;;;;;;;7.00;6.40;;;16.90;99.90;;;;;;933603;151;27426;-75
2023/09/28 02:38:59;;;;;;;7.72;6.35;;;16.90;99.90;;;;;;934177;151;27337;-75
2023/09/28 02:41:26;;;;;;;6.85;6.17;;;16.90;99.90;;;;;;935791;151;27360;-75
2023/09/28 02:43:52;;;;;;;7.50;6.75;;;16.90;99.90;;;;;;933141;151;27348;-75
2023/09/28 02:46:19;;;;;;;6.53;5.92;;;16.90;99.90;;;;;;939107;148;27377;-76
2023/09/28 02:48:45;;;;;;;6.58;5.92;;;16.90;99.90;;;;;;924702;151;27533;-76
2023/09/28 02:51:12;;;;;;;7.22;6.58;;;16.90;99.90;;;;;;953681;148;27477;-76
2023/09/28 02:53:39;;;;;;;8.28;6.17;;;16.80;99.90;;;;;;933544;150;27345;-76
2023/09/28 02:56:05;;;;;;;6.90;6.20;;;16.90;99.90;;;;;;936420;151;27300;-76
2023/09/28 02:58:32;;;;;;;7.60;7.00;;;16.80;99.90;;;;;;935136;151;27362;-76
2023/09/28 03:00:58;;;;;;;7.92;6.83;;;16.80;99.90;;;;;;935919;151;27351;-76
2023/09/28 03:03:25;;;;;;;7.20;6.60;;;16.90;99.90;;;;;;934791;151;27365;-76
2023/09/28 03:05:54;;;;;;;8.38;6.78;;;16.90;99.90;;;;;;934138;151;27429;-76
2023/09/28 03:08:19;;;;;;;7.03;6.10;;;16.90;99.90;;;;;;942998;148;27338;-76
2023/09/28 03:10:45;;;;;;;7.53;6.85;;;16.90;99.90;;;;;;950637;148;27507;-76
2023/09/28 03:13:11;;;;;;;7.47;6.40;;;16.90;99.90;;;;;;934731;151;27380;-76
2023/09/28 03:15:55;;;;;;;7.08;6.42;;;16.90;99.90;;;;;;950210;148;27331;-77
2023/09/28 03:18:07;;;;;;;6.15;5.65;;;16.90;99.90;;;;;;947016;149;27484;-76
2023/09/28 03:20:33;;;;;;;7.15;6.45;;;16.90;99.90;;;;;;954937;148;27367;-76
2023/09/28 03:23:00;;;;;;;7.12;6.42;;;16.90;99.90;;;;;;940906;149;27422;-76
2023/09/28 03:25:27;;;;;;;6.92;6.22;;;16.90;99.90;;;;;;939352;150;27395;-76
2023/09/28 03:27:53;;;;;;;6.72;6.03;;;17.00;99.90;;;;;;957800;147;27340;-76
2023/09/28 03:30:22;;;;;;;6.90;6.28;;;16.90;99.90;;;;;;932700;150;27437;-77
2023/09/28 03:32:49;;;;;;;7.17;6.42;;;17.00;99.90;;;;;;940521;150;27354;-77
2023/09/28 03:35:16;;;;;;;7.78;7.08;;;17.00;99.90;;;;;;959751;147;27364;-76
2023/09/28 03:37:42;;;;;;;7.80;6.42;;;17.00;99.90;;;;;;927176;150;27373;-76
2023/09/28 03:40:11;;;;;;;6.67;6.08;;;17.00;99.90;;;;;;939941;150;27785;-76
2023/09/28 03:42:35;;;;;;;7.17;5.72;;;17.00;99.90;;;;;;958444;147;27325;-76
2023/09/28 03:45:02;;;;;;;7.50;6.85;;;16.90;99.90;;;;;;956892;147;27395;-76
2023/09/28 03:47:28;;;;;;;7.42;6.10;;;16.90;99.90;;;;;;959609;147;27344;-76
2023/09/28 03:49:56;;;;;;;9.48;6.30;;;17.00;99.90;;;;;;940173;150;27463;-76
2023/09/28 03:52:22;;;;;;;7.20;6.55;;;17.00;99.90;;;;;;938932;150;27384;-76
2023/09/28 03:54:48;;;;;;;6.45;5.85;;;17.00;99.90;;;;;;958751;147;27321;-76
2023/09/28 03:57:15;;;;;;;6.55;5.95;;;17.00;99.90;;;;;;937537;150;27363;-77
2023/09/28 03:59:41;;;;;;;7.05;6.53;;;17.00;99.90;;;;;;955370;148;27419;-74
2023/09/28 04:02:08;;;;;;;6.53;5.92;;;17.00;99.90;;;;;;952305;148;27375;-73
2023/09/28 04:04:35;;;;;;;6.70;6.10;;;17.00;99.90;;;;;;953235;148;27332;-77
2023/09/28 04:07:01;;;;;;;7.30;6.70;;;17.00;99.90;;;;;;952447;148;27388;-75
2023/09/28 04:09:28;;;;;;;10.90;6.08;;;17.00;99.90;;;;;;952690;148;27508;-73
2023/09/28 04:11:55;;;;;;;7.20;6.60;;;17.00;99.90;;;;;;953416;148;27792;-73
2023/09/28 04:14:22;;;;;;;7.05;6.45;;;17.00;99.90;;;;;;949981;148;27296;-73
2023/09/28 04:16:47;;;;;;;6.37;5.75;;;17.00;99.90;;;;;;953527;148;27340;-76
2023/09/28 04:19:14;;;;;;;6.20;5.70;;;17.00;99.90;;;;;;954679;148;27433;-74
2023/09/28 04:21:41;;;;;;;8.30;6.50;;;17.00;99.90;;;;;;955143;148;27303;-73
2023/09/28 04:24:08;;;;;;;6.90;6.28;;;17.00;99.90;;;;;;955595;147;27428;-76
2023/09/28 04:26:34;;;;;;;6.62;6.08;;;17.00;99.90;;;;;;958116;147;27315;-73
2023/09/28 04:29:00;;;;;;;6.35;5.75;;;17.00;99.90;;;;;;957650;147;27437;-76
2023/09/28 04:31:27;;;;;;;12.33;6.92;;;17.00;99.90;;;;;;958136;147;27763;-72
2023/09/28 04:33:56;;;;;;;6.90;6.37;;;17.00;99.90;;;;;;957112;147;27318;-75
2023/09/28 04:36:20;;;;;;;6.40;5.80;;;17.00;99.90;;;;;;955262;147;27418;-78
2023/09/28 04:38:48;;;;;;;6.33;5.72;;;17.10;99.90;;;;;;955744;147;27321;-76
2023/09/28 04:41:13;;;;;;;6.62;6.10;;;17.10;99.90;;;;;;958823;147;27344;-78
2023/09/28 04:43:40;;;;;;;6.87;6.10;;;17.10;99.90;;;;;;958054;147;27338;-76
2023/09/28 04:46:07;;;;;;;6.40;5.80;;;17.10;99.90;;;;;;957594;147;27432;-76
2023/09/28 04:48:33;;;;;;;6.65;5.95;;;17.10;99.90;;;;;;956556;147;27450;-77
2023/09/28 04:51:00;;;;;;;6.65;6.05;;;17.10;99.90;;;;;;956670;147;27415;-78
2023/09/28 04:53:26;;;;;;;6.42;5.83;;;17.10;99.90;;;;;;957161;147;27780;-76
2023/09/28 04:55:53;;;;;;;6.47;5.87;;;17.10;99.90;;;;;;956919;147;27330;-76
2023/09/28 04:58:19;;;;;;;6.12;5.50;;;17.00;99.90;;;;;;957516;147;27435;-77
2023/09/28 05:00:46;;;;;;;5.78;5.37;;;17.00;99.90;;;;;;957081;147;27318;-75
2023/09/28 05:03:13;;;;;;;6.58;5.97;;;17.00;99.90;;;;;;956575;147;27335;-79
2023/09/28 05:05:39;;;;;;;7.03;5.85;;;16.90;99.90;;;;;;944283;149;27536;-76
2023/09/28 05:08:06;;;;;;;6.33;5.80;;;16.90;99.90;;;;;;961605;147;27318;-79
2023/09/28 05:10:32;;;;;;;6.97;6.28;;;16.80;99.90;;;;;;962443;147;27692;-79
2023/09/28 05:12:59;;;;;;;7.03;6.33;;;16.80;99.90;;;;;;942524;150;27335;-79
2023/09/28 05:15:26;;;;;;;6.87;6.28;;;16.70;99.90;;;;;;961472;147;27359;-79
2023/09/28 05:17:54;;;;;;;6.65;6.05;;;16.70;99.90;;;;;;943763;150;27349;-79
2023/09/28 05:20:19;;;;;;;5.60;5.12;;;16.60;99.90;;;;;;943623;150;27483;-79
2023/09/28 05:22:45;;;;;;;6.22;5.72;;;16.60;99.90;;;;;;941735;150;27842;-79
2023/09/28 05:25:12;;;;;;;6.65;6.12;;;16.50;99.90;;;;;;954938;147;27360;-79
2023/09/28 05:27:39;;;;;;;6.47;5.87;;;16.50;99.90;;;;;;935640;151;27405;-79
2023/09/28 05:30:05;;;;;;;6.87;6.28;;;16.40;99.90;;;;;;952187;148;28502;-79
2023/09/28 05:32:32;;;;;;;6.35;5.75;;;16.40;99.90;;;;;;952129;148;27433;-79
2023/09/28 05:34:58;;;;;;;7.85;5.83;;;16.30;99.90;;;;;;953606;148;27404;-79
2023/09/28 05:37:25;;;;;;;6.45;5.90;;;16.30;99.90;;;;;;926039;151;27394;-79
2023/09/28 05:39:51;;;;;;;6.53;5.25;;;16.30;99.90;;;;;;936000;150;27398;-79
2023/09/28 05:42:18;;;;;;;8.23;5.87;;;16.30;99.90;;;;;;935025;151;27376;-79
2023/09/28 05:44:45;;;;;;;6.10;5.60;;;16.20;99.90;;;;;;953081;148;27426;-79
2023/09/28 05:47:11;;;;;;;6.80;5.62;;;16.20;99.90;;;;;;928585;151;27339;-77
2023/09/28 05:49:38;;;;;;;6.42;5.92;;;16.20;99.90;;;;;;938396;150;27796;-77
2023/09/28 05:52:05;;;;;;;7.35;6.65;;;16.20;99.90;;;;;;932710;151;27410;-78
2023/09/28 05:54:32;;;;;;;7.75;6.95;;;16.20;99.90;;;;;;934013;151;27326;-77
2023/09/28 05:56:58;;;;;;;6.85;6.25;;;16.20;99.90;;;;;;936287;151;27967;-77
2023/09/28 05:59:24;;;;;;;6.72;5.85;;;16.30;99.90;;;;;;954266;148;27438;-77
2023/09/28 06:01:51;;;;;;;6.60;6.00;;;16.30;99.90;;;;;;938477;150;27343;-77
2023/09/28 06:04:17;;;;;;;7.25;5.95;;;16.40;99.90;;;;;;937483;150;27364;-77
2023/09/28 06:06:44;;;;;;;6.28;5.67;;;16.50;99.90;;;;;;937758;150;27496;-77
2023/09/28 06:09:11;;;;;;;6.42;5.83;;;16.60;99.90;;;;;;938597;150;27388;-77
2023/09/28 06:11:37;;;;;;;6.15;5.65;;;16.70;99.90;;;;;;936578;150;27398;-77
2023/09/28 06:14:04;;;;;;;5.78;5.28;;;16.90;99.90;;;;;;938215;150;27772;-77
2023/09/28 06:16:30;;;;;;;6.08;5.58;;;17.10;99.90;;;;;;939232;150;27358;-78
2023/09/28 06:18:57;;;;;;;5.78;5.28;;;17.30;99.90;;;;;;938071;150;27328;-79
2023/09/28 06:21:23;;;;;;;6.67;5.55;;;17.40;99.90;;;;;;937857;150;27486;-79
2023/09/28 06:23:50;;;;;;;6.95;6.12;;;17.60;99.90;;;;;;937501;150;27721;-77
2023/09/28 06:26:17;;;;;;;5.62;5.15;;;17.80;99.90;;;;;;951100;148;27438;-78
2023/09/28 06:28:43;;;;;;;6.15;5.62;;;18.00;99.90;;;;;;927005;151;27419;-77
2023/09/28 06:31:11;;;;;;;5.08;4.67;;;18.20;99.90;;;;;;934336;151;27440;-77
2023/09/28 06:33:36;;;;;;;5.60;5.20;;;18.40;99.90;;;;;;950292;148;27826;-76
2023/09/28 06:36:04;;;;;;;5.53;5.10;;;18.60;99.90;;;;;;951071;148;27436;-78
2023/09/28 06:38:30;;;;;;;5.60;5.10;;;18.70;99.90;;;;;;955307;148;27300;-78
2023/09/28 06:40:56;;;;;;;5.47;5.08;;;18.90;99.90;;;;;;950093;148;27438;-78
2023/09/28 06:43:23;;;;;;;5.80;5.30;;;19.10;99.90;;;;;;948089;148;27433;-77
2023/09/28 06:45:50;;;;;;;5.70;4.97;;;19.30;99.90;;;;;;950084;148;27482;-76
2023/09/28 06:48:18;;;;;;;6.12;5.47;;;19.80;99.90;;;;;;950119;148;27330;-77
2023/09/28 06:50:43;;;;;;;5.22;4.72;;;20.40;99.90;;;;;;950532;148;27328;-78
2023/09/28 06:53:09;;;;;;;4.45;4.08;;;21.00;99.90;;;;;;950369;148;27340;-77
2023/09/28 06:55:36;;;;;;;5.62;4.65;;;21.70;99.90;;;;;;951938;148;27363;-77
2023/09/28 06:58:06;;;;;;;6.10;4.37;;;22.40;99.90;;;;;;951462;148;27380;-77
2023/09/28 07:00:29;;;;;;;4.50;3.87;;;23.00;99.90;;;;;;951817;148;27325;-76
2023/09/28 07:02:56;;;;;;;4.50;4.10;;;23.70;99.90;;;;;;951918;148;27365;-76
2023/09/28 07:05:22;;;;;;;4.50;4.10;;;24.40;99.90;;;;;;951942;148;27334;-78
2023/09/28 07:07:49;;;;;;;4.05;3.60;;;25.20;99.90;;;;;;951199;148;27340;-77
2023/09/28 07:10:15;;;;;;;4.35;3.95;;;25.90;99.90;;;;;;950132;148;27408;-78
2023/09/28 07:12:42;;;;;;;4.60;4.12;;;26.60;99.90;;;;;;952370;148;27766;-78
2023/09/28 07:15:08;;;;;;;4.10;3.80;;;27.40;97.60;;;;;;949588;148;27343;-78
2023/09/28 07:17:36;;;;;;;4.08;3.62;;;28.10;94.60;;;;;;950470;148;27329;-78
2023/09/28 07:20:03;;;;;;;3.90;3.60;;;28.80;91.30;;;;;;951863;146;27339;-77
2023/09/28 07:22:28;;;;;;;3.87;3.58;;;29.20;84.60;;;;;;949807;148;27346;-79
2023/09/28 07:24:55;;;;;;;3.37;3.17;;;29.50;78.40;;;;;;946464;148;27533;-76
2023/09/28 07:27:21;;;;;;;4.17;3.87;;;29.50;74.20;;;;;;943293;148;27431;-78
2023/09/28 07:29:50;;;;;;;4.37;4.03;;;29.30;71.30;;;;;;945132;149;27327;-79
2023/09/28 07:32:15;;;;;;;6.65;4.17;;;28.90;69.50;;;;;;942571;149;27271;-79
2023/09/28 07:34:42;;;;;;;4.33;3.92;;;28.50;68.60;;;;;;901969;155;27426;-79
2023/09/28 07:37:08;;;;;;;5.10;3.72;;;28.00;68.90;;;;;;906118;155;27605;-77
2023/09/28 07:39:34;;;;;;;3.90;3.60;;;27.60;71.10;;;;;;922045;152;27477;-77
2023/09/28 07:42:07;;;;;;;3.75;3.45;;;27.60;74.50;;;;;;922274;152;27439;-77
2023/09/28 07:44:28;;;;;;;3.92;3.65;;;27.70;77.20;;;;;;922246;152;27392;-79
2023/09/28 07:46:54;;;;;;;3.80;3.50;;;28.10;80.10;;;;;;925489;152;26373;-79
2023/09/28 07:49:21;;;;;;;3.67;3.37;;;28.70;81.40;;;;;;921870;152;27394;-77
2023/09/28 07:51:47;;;;;;;4.00;3.70;;;29.40;81.00;;;;;;922830;152;27470;-77
2023/09/28 07:54:14;;;;;;;3.60;3.30;;;30.10;78.90;;;;;;925534;152;27359;-78
2023/09/28 07:56:41;;;;;;;3.47;3.17;;;30.80;77.20;;;;;;923758;152;27831;-79
2023/09/28 07:59:07;;;;;;;3.47;3.17;;;31.60;75.10;;;;;;921475;152;27477;-79
2023/09/28 08:01:37;;;;;;;3.70;3.40;;;32.30;73.00;;;;;;938214;147;27369;-80
2023/09/28 08:04:03;;;;;;;3.17;2.87;;;33.00;70.10;;;;;;903736;155;26268;-79
2023/09/28 08:06:30;;;;;;;3.58;3.30;;;33.60;68.00;;;;;;927224;152;26283;-79
2023/09/28 08:08:56;;;;;;;3.37;3.08;;;34.20;66.20;;;;;;923236;152;26356;-76
2023/09/28 08:11:23;;;;;;;3.70;3.40;;;34.70;64.30;;;;;;908341;155;26386;-79
2023/09/28 08:13:50;;;;;;;3.30;3.00;;;35.20;63.00;;;;;;925680;152;26280;-79
2023/09/28 08:16:17;;;;;;;2.83;2.62;;;35.60;61.20;;;;;;921697;152;26336;-78
2023/09/28 08:18:43;;;;;;;3.15;2.85;;;36.00;60.20;;;;;;924051;152;26339;-79
2023/09/28 08:21:09;;;;;;;3.40;3.00;;;36.40;59.40;;;;;;925143;152;26256;-77
2023/09/28 08:23:37;;;;;;;3.30;3.00;;;36.70;58.60;;;;;;923350;152;26385;-79
2023/09/28 08:26:03;;;;;;;2.80;2.60;;;37.10;57.70;;;;;;927200;150;26334;-79
2023/09/28 08:28:29;;;;;;;2.95;2.75;;;37.40;56.90;;;;;;949733;148;26212;-79
2023/09/28 08:30:56;;;;;;;3.83;2.75;;;37.70;56.20;;;;;;951095;148;26280;-79
2023/09/28 08:33:22;;;;;;;3.80;3.10;;;38.00;55.20;;;;;;928163;151;26263;-80
2023/09/28 08:35:49;;;;;;;3.55;2.95;;;38.30;54.60;;;;;;931984;151;26273;-80
2023/09/28 08:38:16;;;;;;;3.55;3.20;;;38.50;54.00;;;;;;945706;148;26302;-78
2023/09/28 08:40:42;;;;;;;2.75;2.55;;;38.80;53.40;;;;;;929563;151;26283;-78
2023/09/28 08:43:10;;;;;;;3.70;2.87;;;39.00;52.60;;;;;;928553;151;26248;-78
2023/09/28 08:45:35;;;;;;;3.33;2.83;;;39.20;52.00;;;;;;934306;151;26295;-78
2023/09/28 08:48:02;;;;;;;2.95;2.75;;;39.50;51.40;;;;;;949510;148;26406;-78
2023/09/28 08:50:28;;;;;;;2.87;2.67;;;39.70;50.80;;;;;;927081;151;26201;-78
2023/09/28 08:52:55;;;;;;;2.60;2.40;;;39.80;50.40;;;;;;929807;151;26379;-78
2023/09/28 08:55:22;;;;;;;3.45;3.15;;;39.90;49.90;;;;;;928682;151;26270;-78
2023/09/28 08:57:48;;;;;;;2.83;2.62;;;40.10;49.20;;;;;;950707;148;26226;-78
2023/09/28 09:00:15;;;;;;;4.65;2.65;;;40.10;49.00;;;;;;929915;151;26357;-78
2023/09/28 09:02:44;;;;;;;3.30;2.70;;;40.20;48.40;;;;;;948800;148;26294;-78
2023/09/28 09:05:14;;;;;;;2.98;2.77;;;40.20;47.90;;;;;;947561;148;26255;-78
2023/09/28 09:07:41;;;;;;;3.30;2.60;;;40.20;47.60;;;;;;929486;151;26310;-78
2023/09/28 09:10:07;;;;;;;2.75;2.55;;;40.20;47.10;;;;;;945363;148;26850;-78
2023/09/28 09:12:35;;;;;;;2.72;2.27;;;40.20;46.80;;;;;;932650;151;26283;-78
2023/09/28 09:15:00;;;;;;;2.60;2.40;;;40.10;46.70;;;;;;940485;148;26295;-78
2023/09/28 09:17:33;;;;;;;3.95;2.90;;;40.10;46.60;;;;;;947460;148;26295;-78
2023/09/28 09:19:59;;;;;;;2.58;2.35;;;39.90;46.30;;;;;;947526;148;26375;-78
2023/09/28 09:22:27;;;;;;;3.55;2.50;;;39.90;46.20;;;;;;951948;148;26259;-78
2023/09/28 09:24:52;;;;;;;3.40;2.42;;;39.80;46.00;;;;;;946354;148;26336;-78
2023/09/28 09:27:19;;;;;;;3.95;2.67;;;39.80;45.90;;;;;;948737;148;26303;-78
2023/09/28 09:29:46;;;;;;;2.98;2.58;;;39.70;45.50;;;;;;953936;147;26244;-78
2023/09/28 09:32:12;;;;;;;2.45;2.27;;;39.60;45.00;;;;;;954072;147;26329;-78
2023/09/28 09:36:59;;;;;;;2.77;2.50;;;39.60;45.00;;;;;;966456;145;35243;-77
2023/09/28 09:39:25;;;;;;;2.70;2.50;;;39.20;44.70;;;;;;955336;148;26274;-77
2023/09/28 09:41:52;;;;;;;2.95;2.47;;;39.00;44.50;;;;;;953231;148;27757;-77
2023/09/28 09:44:21;;;;;;;2.62;2.30;;;38.70;44.40;;;;;;956956;148;26215;-77
2023/09/28 09:46:50;;;;;;;3.08;2.85;;;38.40;44.30;;;;;;956066;148;26305;-77
2023/09/28 09:49:20;;;;;;;2.80;2.40;;;38.20;44.20;;;;;;956210;147;26253;-74
2023/09/28 09:51:47;;;;;;;3.42;2.83;;;37.90;44.30;;;;;;957462;148;26305;-74
2023/09/28 09:54:13;;;;;;;2.77;2.58;;;37.60;44.40;;;;;;956774;148;26247;-74
2023/09/28 09:56:39;;;;;;;3.60;2.37;;;37.30;44.30;;;;;;954536;148;27124;-74
2023/09/28 09:59:06;;;;;;;2.77;2.52;;;37.00;44.30;;;;;;955780;148;26196;-74
2023/09/28 10:01:33;;;;;;;2.77;2.47;;;36.70;44.30;;;;;;956212;148;26293;-74
2023/09/28 10:04:00;;;;;;;2.72;2.52;;;36.40;45.00;;;;;;958350;147;26292;-76
2023/09/28 10:06:27;;;;;;;2.60;2.20;;;36.00;44.50;;;;;;955155;148;26236;-76
2023/09/28 10:08:53;;;;;;;2.50;2.30;;;35.70;44.50;;;;;;954996;148;26298;-77
2023/09/28 10:11:19;;;;;;;2.80;2.60;;;35.40;44.70;;;;;;954075;147;27339;-73
2023/09/28 10:13:51;;;;;;;4.17;2.27;;;35.20;44.80;;;;;;953511;146;27380;-75
2023/09/28 10:16:18;;;;;;;5.50;2.75;;;34.80;44.90;;;;;;953395;146;27452;-73
2023/09/28 10:18:45;;;;;;;2.83;2.60;;;34.50;45.60;;;;;;951880;146;27433;-75
2023/09/28 10:21:14;;;;;;;2.87;2.65;;;34.20;45.20;;;;;;952375;146;27343;-74
2023/09/28 10:23:40;;;;;;;2.85;2.45;;;33.90;45.90;;;;;;954323;146;27436;-76
2023/09/28 10:26:16;;;;;;;2.67;2.47;;;33.60;45.60;;;;;;951691;147;28048;-74
2023/09/28 10:29:06;;;;;;;2.62;2.42;;;33.30;45.80;;;;;;950667;146;27354;-74
2023/09/28 10:31:42;;;;;;;2.95;2.70;;;33.10;46.20;;;;;;954044;148;27364;-75
2023/09/28 10:34:08;;;;;;;6.08;2.98;;;32.80;46.50;;;;;;954447;148;27841;-73
2023/09/28 10:36:35;;;;;;;2.87;2.65;;;32.50;46.70;;;;;;950419;147;27499;-73
2023/09/28 10:39:17;;;;;;;3.15;2.83;;;32.30;46.90;;;;;;948924;148;27329;-75
2023/09/28 10:41:43;;;;;;;3.67;2.67;;;32.10;47.10;;;;;;946326;149;27323;-73
2023/09/28 10:44:13;;;;;;;2.92;2.70;;;31.90;47.40;;;;;;947402;147;27377;-77
2023/09/28 10:46:39;;;;;;;2.70;2.50;;;31.80;47.60;;;;;;947323;148;27442;-74
2023/09/28 10:49:05;;;;;;;3.20;2.45;;;31.60;48.10;;;;;;948490;147;27283;-75
2023/09/28 10:51:32;;;;;;;2.90;2.60;;;31.50;48.10;;;;;;947439;147;27333;-74
2023/09/28 10:53:59;;;;;;;3.08;2.72;;;31.40;48.30;;;;;;953964;146;27401;-74
2023/09/28 10:56:26;;;;;;;3.35;2.52;;;31.30;48.40;;;;;;954321;149;27477;-75
2023/09/28 10:58:52;;;;;;;3.60;2.70;;;31.10;48.70;;;;;;953610;146;27371;-76
2023/09/28 11:01:18;;;;;;;2.52;2.33;;;31.00;48.90;;;;;;951524;147;27294;-75
2023/09/28 11:03:46;;;;;;;3.30;2.52;;;31.00;49.30;;;;;;951673;147;27433;-76
2023/09/28 11:06:12;;;;;;;2.77;2.58;;;30.90;49.10;;;;;;953509;146;27331;-75
2023/09/28 11:08:39;;;;;;;2.72;2.50;;;30.80;49.10;;;;;;951824;146;27367;-76
2023/09/28 11:11:05;;;;;;;2.90;2.70;;;30.70;49.30;;;;;;954679;146;27290;-76
2023/09/28 11:13:31;;;;;;;6.60;3.12;;;30.60;49.50;;;;;;953293;146;27326;-76
2023/09/28 11:15:58;;;;;;;3.05;2.80;;;30.50;49.70;;;;;;953375;147;27431;-76
2023/09/28 11:18:25;;;;;;;2.67;2.40;;;30.50;49.80;;;;;;952912;148;27446;-76
2023/09/28 11:20:51;;;;;;;3.00;2.70;;;30.50;50.00;;;;;;952733;146;27363;-75
2023/09/28 11:23:18;;;;;;;3.42;2.83;;;30.40;50.10;;;;;;953545;146;28423;-76
2023/09/28 11:25:44;;;;;;;3.40;2.40;;;30.40;50.10;;;;;;952777;146;27304;-76
2023/09/28 11:28:11;;;;;;;2.90;2.70;;;30.40;50.30;;;;;;952220;146;28087;-76
2023/09/28 11:30:38;;;;;;;2.65;2.45;;;30.40;50.40;;;;;;954893;146;27844;-76
2023/09/28 11:33:04;;;;;;;4.28;2.42;;;30.30;50.20;;;;;;953792;147;27743;-76
2023/09/28 11:35:31;;;;;;;2.42;2.22;;;30.30;50.20;;;;;;954299;146;27432;-76
2023/09/28 11:38:00;;;;;;;2.30;2.10;;;30.30;50.30;;;;;;952458;146;28207;-76
2023/09/28 11:40:28;;;;;;;2.50;2.30;;;30.30;50.30;;;;;;953808;146;27297;-76
2023/09/28 11:42:53;;;;;;;2.77;2.58;;;30.20;50.20;;;;;;953818;146;27359;-76
2023/09/28 11:45:20;;;;;;;2.33;2.22;;;30.20;50.10;;;;;;952839;146;27347;-76
2023/09/28 11:47:47;;;;;;;2.33;2.12;;;30.20;50.20;;;;;;951227;146;27461;-75
2023/09/28 11:50:13;;;;;;;2.50;2.20;;;30.20;50.10;;;;;;953244;147;27334;-75
2023/09/28 11:52:40;;;;;;;3.37;2.45;;;30.20;50.10;;;;;;955172;148;27419;-76
2023/09/28 11:55:06;;;;;;;3.98;2.25;;;30.20;50.20;;;;;;925731;149;27347;-76
2023/09/28 11:57:36;;;;;;;2.77;2.58;;;30.20;50.30;;;;;;942458;146;27341;-76
2023/09/28 12:00:03;;;;;;;2.67;2.47;;;30.30;50.20;;;;;;926078;149;27451;-76
2023/09/28 12:02:29;;;;;;;2.85;2.25;;;30.30;50.20;;;;;;926481;149;27715;-75
2023/09/28 12:04:57;;;;;;;2.47;2.27;;;30.40;50.20;;;;;;943050;146;27365;-76
2023/09/28 12:07:22;;;;;;;2.20;2.00;;;30.40;50.10;;;;;;924279;149;27660;-75
2023/09/28 12:09:49;;;;;;;2.45;2.25;;;30.40;50.20;;;;;;938920;148;27473;-75
2023/09/28 12:12:15;;;;;;;2.17;2.08;;;30.40;50.20;;;;;;937034;148;27386;-76
2023/09/28 12:14:43;;;;;;;2.62;2.42;;;30.50;50.30;;;;;;939481;148;27387;-75
2023/09/28 12:17:09;;;;;;;2.60;2.40;;;30.60;50.40;;;;;;941151;148;27430;-75
2023/09/28 12:19:35;;;;;;;2.95;2.40;;;30.60;50.20;;;;;;938371;148;27347;-75
2023/09/28 12:22:03;;;;;;;3.00;2.70;;;30.70;50.20;;;;;;938572;148;27366;-75
2023/09/28 12:24:28;;;;;;;3.92;2.30;;;30.70;50.40;;;;;;938724;148;27433;-76
2023/09/28 12:26:55;;;;;;;2.37;2.17;;;30.80;50.40;;;;;;927874;149;27314;-76
2023/09/28 12:29:21;;;;;;;2.65;2.45;;;30.80;50.20;;;;;;941797;146;27410;-75
2023/09/28 12:31:48;;;;;;;2.92;2.65;;;30.90;50.20;;;;;;926705;149;27376;-76
2023/09/28 12:34:15;;;;;;;2.85;2.33;;;31.00;50.10;;;;;;923557;150;27380;-75
2023/09/28 12:36:41;;;;;;;2.90;2.50;;;31.00;49.80;;;;;;944500;146;27325;-76
2023/09/28 12:39:10;;;;;;;2.00;1.90;;;31.00;49.40;;;;;;930456;150;26390;-75
2023/09/28 12:41:34;;;;;;;3.15;2.45;;;31.00;49.30;;;;;;919849;151;27342;-75
2023/09/28 12:44:01;;;;;;;3.27;2.62;;;30.90;49.20;;;;;;937871;151;27330;-76